sensor_id;sensor_type;location;lat;lon;timestamp;P1;durP1;ratioP1;P2;durP2;ratioP2
67146;SDS011;54061;52.036;5.558;2022-09-24T00:03:36;21.75;;;16.88;;
67146;SDS011;54061;52.036;5.558;2022-09-24T00:06:03;24.45;;;17.23;;
67146;SDS011;54061;52.036;5.558;2022-09-24T00:08:30;27.17;;;17.55;;
67146;SDS011;54061;52.036;5.558;2022-09-24T00:10:59;25.45;;;16.08;;
67146;SDS011;54061;52.036;5.558;2022-09-24T00:13:27;28.95;;;16.17;;
67146;SDS011;54061;52.036;5.558;2022-09-24T00:15:53;22.75;;;16.50;;
67146;SDS011;54061;52.036;5.558;2022-09-24T00:18:18;25.17;;;16.77;;
67146;SDS011;54061;52.036;5.558;2022-09-24T00:20:45;21.15;;;14.93;;
67146;SDS011;54061;52.036;5.558;2022-09-24T00:23:11;22.55;;;16.02;;
67146;SDS011;54061;52.036;5.558;2022-09-24T00:25:43;19.73;;;15.38;;
67146;SDS011;54061;52.036;5.558;2022-09-24T00:28:28;20.77;;;15.15;;
67146;SDS011;54061;52.036;5.558;2022-09-24T00:30:55;28.92;;;16.92;;
67146;SDS011;54061;52.036;5.558;2022-09-24T00:33:24;26.02;;;16.27;;
67146;SDS011;54061;52.036;5.558;2022-09-24T00:35:52;24.35;;;16.27;;
67146;SDS011;54061;52.036;5.558;2022-09-24T00:38:17;24.30;;;17.08;;
67146;SDS011;54061;52.036;5.558;2022-09-24T00:40:43;22.40;;;16.20;;
67146;SDS011;54061;52.036;5.558;2022-09-24T00:45:50;24.52;;;17.30;;
67146;SDS011;54061;52.036;5.558;2022-09-24T00:48:17;26.48;;;15.90;;
67146;SDS011;54061;52.036;5.558;2022-09-24T00:50:43;24.38;;;16.75;;
67146;SDS011;54061;52.036;5.558;2022-09-24T00:53:10;25.13;;;17.10;;
67146;SDS011;54061;52.036;5.558;2022-09-24T00:55:41;25.75;;;16.67;;
67146;SDS011;54061;52.036;5.558;2022-09-24T00:58:09;26.33;;;17.60;;
67146;SDS011;54061;52.036;5.558;2022-09-24T01:00:36;25.75;;;17.10;;
67146;SDS011;54061;52.036;5.558;2022-09-24T01:03:10;26.35;;;17.73;;
67146;SDS011;54061;52.036;5.558;2022-09-24T01:05:42;27.42;;;18.17;;
67146;SDS011;54061;52.036;5.558;2022-09-24T01:08:12;28.73;;;18.38;;
67146;SDS011;54061;52.036;5.558;2022-09-24T01:13:42;29.75;;;18.15;;
67146;SDS011;54061;52.036;5.558;2022-09-24T01:16:40;26.88;;;17.88;;
67146;SDS011;54061;52.036;5.558;2022-09-24T01:22:02;34.95;;;21.75;;
67146;SDS011;54061;52.036;5.558;2022-09-24T01:27:15;35.35;;;22.67;;
67146;SDS011;54061;52.036;5.558;2022-09-24T01:29:47;33.67;;;22.00;;
67146;SDS011;54061;52.036;5.558;2022-09-24T01:32:36;32.60;;;21.45;;
67146;SDS011;54061;52.036;5.558;2022-09-24T01:37:37;36.03;;;22.90;;
67146;SDS011;54061;52.036;5.558;2022-09-24T01:40:05;34.35;;;21.98;;
67146;SDS011;54061;52.036;5.558;2022-09-24T01:42:33;35.70;;;23.13;;
67146;SDS011;54061;52.036;5.558;2022-09-24T01:45:01;37.22;;;23.25;;
67146;SDS011;54061;52.036;5.558;2022-09-24T01:47:29;35.08;;;21.77;;
67146;SDS011;54061;52.036;5.558;2022-09-24T01:49:57;36.30;;;21.80;;
67146;SDS011;54061;52.036;5.558;2022-09-24T01:52:24;38.33;;;22.95;;
67146;SDS011;54061;52.036;5.558;2022-09-24T01:54:55;35.00;;;22.77;;
67146;SDS011;54061;52.036;5.558;2022-09-24T01:57:30;33.88;;;22.00;;
67146;SDS011;54061;52.036;5.558;2022-09-24T02:00:04;34.95;;;21.75;;
67146;SDS011;54061;52.036;5.558;2022-09-24T02:02:37;34.58;;;21.85;;
67146;SDS011;54061;52.036;5.558;2022-09-24T02:05:23;33.80;;;21.58;;
67146;SDS011;54061;52.036;5.558;2022-09-24T02:07:52;36.63;;;22.75;;
67146;SDS011;54061;52.036;5.558;2022-09-24T02:13:14;28.27;;;16.90;;
67146;SDS011;54061;52.036;5.558;2022-09-24T02:15:44;30.67;;;19.42;;
67146;SDS011;54061;52.036;5.558;2022-09-24T02:18:15;27.95;;;18.90;;
67146;SDS011;54061;52.036;5.558;2022-09-24T02:20:43;28.58;;;19.30;;
67146;SDS011;54061;52.036;5.558;2022-09-24T02:23:10;25.63;;;18.15;;
67146;SDS011;54061;52.036;5.558;2022-09-24T02:25:44;34.05;;;20.60;;
67146;SDS011;54061;52.036;5.558;2022-09-24T02:28:15;27.80;;;18.30;;
67146;SDS011;54061;52.036;5.558;2022-09-24T02:30:42;33.42;;;20.17;;
67146;SDS011;54061;52.036;5.558;2022-09-24T02:33:12;25.65;;;18.10;;
67146;SDS011;54061;52.036;5.558;2022-09-24T02:35:58;30.35;;;19.70;;
67146;SDS011;54061;52.036;5.558;2022-09-24T02:38:24;26.60;;;18.65;;
67146;SDS011;54061;52.036;5.558;2022-09-24T02:40:49;29.70;;;19.85;;
67146;SDS011;54061;52.036;5.558;2022-09-24T02:43:16;27.83;;;18.25;;
67146;SDS011;54061;52.036;5.558;2022-09-24T02:45:42;29.17;;;19.17;;
67146;SDS011;54061;52.036;5.558;2022-09-24T02:48:08;29.88;;;18.75;;
67146;SDS011;54061;52.036;5.558;2022-09-24T02:50:34;29.50;;;19.02;;
67146;SDS011;54061;52.036;5.558;2022-09-24T02:52:59;29.90;;;19.40;;
67146;SDS011;54061;52.036;5.558;2022-09-24T02:55:25;30.60;;;19.83;;
67146;SDS011;54061;52.036;5.558;2022-09-24T02:57:51;28.77;;;20.73;;
67146;SDS011;54061;52.036;5.558;2022-09-24T03:00:17;30.63;;;20.60;;
67146;SDS011;54061;52.036;5.558;2022-09-24T03:02:45;33.55;;;20.85;;
67146;SDS011;54061;52.036;5.558;2022-09-24T03:05:11;27.35;;;19.25;;
67146;SDS011;54061;52.036;5.558;2022-09-24T03:07:37;27.65;;;18.58;;
67146;SDS011;54061;52.036;5.558;2022-09-24T03:10:03;29.95;;;19.83;;
67146;SDS011;54061;52.036;5.558;2022-09-24T03:12:29;30.95;;;19.17;;
67146;SDS011;54061;52.036;5.558;2022-09-24T03:14:54;27.55;;;19.05;;
67146;SDS011;54061;52.036;5.558;2022-09-24T03:17:20;28.35;;;19.10;;
67146;SDS011;54061;52.036;5.558;2022-09-24T03:19:45;26.30;;;18.48;;
67146;SDS011;54061;52.036;5.558;2022-09-24T03:22:11;27.50;;;18.75;;
67146;SDS011;54061;52.036;5.558;2022-09-24T03:24:36;24.45;;;17.05;;
67146;SDS011;54061;52.036;5.558;2022-09-24T03:27:02;29.00;;;16.90;;
67146;SDS011;54061;52.036;5.558;2022-09-24T03:29:28;26.10;;;17.35;;
67146;SDS011;54061;52.036;5.558;2022-09-24T03:32:12;25.02;;;17.05;;
67146;SDS011;54061;52.036;5.558;2022-09-24T03:34:37;25.35;;;17.20;;
67146;SDS011;54061;52.036;5.558;2022-09-24T03:37:03;24.20;;;16.45;;
67146;SDS011;54061;52.036;5.558;2022-09-24T03:39:28;25.15;;;17.67;;
67146;SDS011;54061;52.036;5.558;2022-09-24T03:41:54;23.05;;;16.50;;
67146;SDS011;54061;52.036;5.558;2022-09-24T03:44:19;21.98;;;15.85;;
67146;SDS011;54061;52.036;5.558;2022-09-24T03:46:45;23.50;;;15.80;;
67146;SDS011;54061;52.036;5.558;2022-09-24T03:49:11;22.50;;;16.08;;
67146;SDS011;54061;52.036;5.558;2022-09-24T03:51:36;24.58;;;16.55;;
67146;SDS011;54061;52.036;5.558;2022-09-24T03:54:02;23.58;;;16.33;;
67146;SDS011;54061;52.036;5.558;2022-09-24T03:56:27;23.65;;;15.68;;
67146;SDS011;54061;52.036;5.558;2022-09-24T03:58:53;27.73;;;17.20;;
67146;SDS011;54061;52.036;5.558;2022-09-24T04:01:18;22.75;;;16.15;;
67146;SDS011;54061;52.036;5.558;2022-09-24T04:03:45;22.35;;;16.45;;
67146;SDS011;54061;52.036;5.558;2022-09-24T04:06:11;24.65;;;16.67;;
67146;SDS011;54061;52.036;5.558;2022-09-24T04:08:37;25.05;;;17.20;;
67146;SDS011;54061;52.036;5.558;2022-09-24T04:11:02;22.17;;;15.70;;
67146;SDS011;54061;52.036;5.558;2022-09-24T04:13:28;23.92;;;15.60;;
67146;SDS011;54061;52.036;5.558;2022-09-24T04:15:54;24.35;;;16.25;;
67146;SDS011;54061;52.036;5.558;2022-09-24T04:18:20;23.55;;;15.18;;
67146;SDS011;54061;52.036;5.558;2022-09-24T04:20:46;22.27;;;14.88;;
67146;SDS011;54061;52.036;5.558;2022-09-24T04:23:12;25.60;;;14.95;;
67146;SDS011;54061;52.036;5.558;2022-09-24T04:25:38;24.17;;;14.27;;
67146;SDS011;54061;52.036;5.558;2022-09-24T04:28:07;19.73;;;14.02;;
67146;SDS011;54061;52.036;5.558;2022-09-24T04:30:34;21.35;;;14.60;;
67146;SDS011;54061;52.036;5.558;2022-09-24T04:33:00;19.67;;;13.65;;
67146;SDS011;54061;52.036;5.558;2022-09-24T04:35:27;19.58;;;13.75;;
67146;SDS011;54061;52.036;5.558;2022-09-24T04:37:54;21.10;;;13.23;;
67146;SDS011;54061;52.036;5.558;2022-09-24T04:40:20;16.73;;;12.85;;
67146;SDS011;54061;52.036;5.558;2022-09-24T04:42:46;18.48;;;12.68;;
67146;SDS011;54061;52.036;5.558;2022-09-24T04:45:13;22.20;;;13.38;;
67146;SDS011;54061;52.036;5.558;2022-09-24T04:47:41;17.63;;;13.02;;
67146;SDS011;54061;52.036;5.558;2022-09-24T04:50:07;21.77;;;12.98;;
67146;SDS011;54061;52.036;5.558;2022-09-24T04:52:35;17.30;;;12.63;;
67146;SDS011;54061;52.036;5.558;2022-09-24T04:55:01;17.33;;;13.02;;
67146;SDS011;54061;52.036;5.558;2022-09-24T04:57:27;20.27;;;13.52;;
67146;SDS011;54061;52.036;5.558;2022-09-24T04:59:53;16.83;;;12.98;;
67146;SDS011;54061;52.036;5.558;2022-09-24T05:02:19;22.75;;;13.82;;
67146;SDS011;54061;52.036;5.558;2022-09-24T05:04:45;19.70;;;13.55;;
67146;SDS011;54061;52.036;5.558;2022-09-24T05:07:11;18.58;;;12.57;;
67146;SDS011;54061;52.036;5.558;2022-09-24T05:09:37;17.35;;;12.15;;
67146;SDS011;54061;52.036;5.558;2022-09-24T05:12:03;16.33;;;12.10;;
67146;SDS011;54061;52.036;5.558;2022-09-24T05:14:29;18.92;;;13.82;;
67146;SDS011;54061;52.036;5.558;2022-09-24T05:16:54;16.13;;;12.57;;
67146;SDS011;54061;52.036;5.558;2022-09-24T05:19:20;18.70;;;12.73;;
67146;SDS011;54061;52.036;5.558;2022-09-24T05:21:46;20.65;;;13.27;;
67146;SDS011;54061;52.036;5.558;2022-09-24T05:24:12;15.73;;;11.85;;
67146;SDS011;54061;52.036;5.558;2022-09-24T05:26:38;22.92;;;13.57;;
67146;SDS011;54061;52.036;5.558;2022-09-24T05:29:22;16.75;;;12.02;;
67146;SDS011;54061;52.036;5.558;2022-09-24T05:31:48;18.60;;;12.85;;
67146;SDS011;54061;52.036;5.558;2022-09-24T05:34:13;18.27;;;12.88;;
67146;SDS011;54061;52.036;5.558;2022-09-24T05:36:40;17.95;;;12.75;;
67146;SDS011;54061;52.036;5.558;2022-09-24T05:39:07;19.63;;;12.90;;
67146;SDS011;54061;52.036;5.558;2022-09-24T05:41:33;20.45;;;13.57;;
67146;SDS011;54061;52.036;5.558;2022-09-24T05:43:58;19.15;;;12.27;;
67146;SDS011;54061;52.036;5.558;2022-09-24T05:46:25;23.40;;;13.43;;
67146;SDS011;54061;52.036;5.558;2022-09-24T05:48:50;17.52;;;12.95;;
67146;SDS011;54061;52.036;5.558;2022-09-24T05:51:16;18.15;;;12.57;;
67146;SDS011;54061;52.036;5.558;2022-09-24T05:53:42;16.75;;;12.57;;
67146;SDS011;54061;52.036;5.558;2022-09-24T05:56:08;18.08;;;12.85;;
67146;SDS011;54061;52.036;5.558;2022-09-24T05:58:34;18.10;;;13.07;;
67146;SDS011;54061;52.036;5.558;2022-09-24T06:01:00;18.10;;;12.82;;
67146;SDS011;54061;52.036;5.558;2022-09-24T06:03:26;19.35;;;13.15;;
67146;SDS011;54061;52.036;5.558;2022-09-24T06:05:53;16.23;;;12.30;;
67146;SDS011;54061;52.036;5.558;2022-09-24T06:08:20;17.73;;;12.45;;
67146;SDS011;54061;52.036;5.558;2022-09-24T06:10:46;15.77;;;12.32;;
67146;SDS011;54061;52.036;5.558;2022-09-24T06:13:17;18.70;;;12.23;;
67146;SDS011;54061;52.036;5.558;2022-09-24T06:15:44;15.20;;;11.50;;
67146;SDS011;54061;52.036;5.558;2022-09-24T06:18:11;19.17;;;12.57;;
67146;SDS011;54061;52.036;5.558;2022-09-24T06:20:36;19.02;;;11.90;;
67146;SDS011;54061;52.036;5.558;2022-09-24T06:23:02;16.17;;;11.27;;
67146;SDS011;54061;52.036;5.558;2022-09-24T06:25:28;14.73;;;11.65;;
67146;SDS011;54061;52.036;5.558;2022-09-24T06:27:58;18.70;;;11.70;;
67146;SDS011;54061;52.036;5.558;2022-09-24T06:30:26;17.20;;;12.25;;
67146;SDS011;54061;52.036;5.558;2022-09-24T06:33:00;16.33;;;11.45;;
67146;SDS011;54061;52.036;5.558;2022-09-24T06:35:33;15.68;;;11.38;;
67146;SDS011;54061;52.036;5.558;2022-09-24T06:38:00;16.85;;;10.57;;
67146;SDS011;54061;52.036;5.558;2022-09-24T06:40:26;16.45;;;11.57;;
67146;SDS011;54061;52.036;5.558;2022-09-24T06:42:52;15.77;;;11.50;;
67146;SDS011;54061;52.036;5.558;2022-09-24T06:45:18;18.17;;;12.20;;
67146;SDS011;54061;52.036;5.558;2022-09-24T06:47:50;16.92;;;12.32;;
67146;SDS011;54061;52.036;5.558;2022-09-24T06:50:16;19.10;;;11.43;;
67146;SDS011;54061;52.036;5.558;2022-09-24T06:52:42;18.00;;;12.85;;
67146;SDS011;54061;52.036;5.558;2022-09-24T06:55:08;17.15;;;11.98;;
67146;SDS011;54061;52.036;5.558;2022-09-24T06:57:33;20.30;;;12.23;;
67146;SDS011;54061;52.036;5.558;2022-09-24T06:59:59;16.67;;;12.35;;
67146;SDS011;54061;52.036;5.558;2022-09-24T07:02:24;18.58;;;12.95;;
67146;SDS011;54061;52.036;5.558;2022-09-24T07:04:50;18.42;;;12.73;;
67146;SDS011;54061;52.036;5.558;2022-09-24T07:07:15;17.35;;;12.10;;
67146;SDS011;54061;52.036;5.558;2022-09-24T07:09:54;18.63;;;11.85;;
67146;SDS011;54061;52.036;5.558;2022-09-24T07:12:22;20.08;;;13.35;;
67146;SDS011;54061;52.036;5.558;2022-09-24T07:14:48;17.58;;;12.75;;
67146;SDS011;54061;52.036;5.558;2022-09-24T07:17:14;23.02;;;12.93;;
67146;SDS011;54061;52.036;5.558;2022-09-24T07:19:40;26.05;;;12.82;;
67146;SDS011;54061;52.036;5.558;2022-09-24T07:22:06;21.48;;;13.25;;
67146;SDS011;54061;52.036;5.558;2022-09-24T07:24:32;20.98;;;12.88;;
67146;SDS011;54061;52.036;5.558;2022-09-24T07:26:58;24.92;;;14.80;;
67146;SDS011;54061;52.036;5.558;2022-09-24T07:29:24;22.80;;;13.43;;
67146;SDS011;54061;52.036;5.558;2022-09-24T07:31:50;26.45;;;14.63;;
67146;SDS011;54061;52.036;5.558;2022-09-24T07:34:15;27.67;;;14.80;;
67146;SDS011;54061;52.036;5.558;2022-09-24T07:36:41;25.10;;;15.18;;
67146;SDS011;54061;52.036;5.558;2022-09-24T07:39:07;25.90;;;15.57;;
67146;SDS011;54061;52.036;5.558;2022-09-24T07:41:33;25.85;;;14.32;;
67146;SDS011;54061;52.036;5.558;2022-09-24T07:43:59;30.52;;;15.50;;
67146;SDS011;54061;52.036;5.558;2022-09-24T07:46:25;34.10;;;16.48;;
67146;SDS011;54061;52.036;5.558;2022-09-24T07:48:51;30.23;;;16.05;;
67146;SDS011;54061;52.036;5.558;2022-09-24T07:51:20;30.70;;;14.88;;
67146;SDS011;54061;52.036;5.558;2022-09-24T07:53:46;27.45;;;15.27;;
67146;SDS011;54061;52.036;5.558;2022-09-24T07:56:13;30.10;;;15.40;;
67146;SDS011;54061;52.036;5.558;2022-09-24T07:58:38;28.10;;;16.00;;
67146;SDS011;54061;52.036;5.558;2022-09-24T08:01:04;25.67;;;14.52;;
67146;SDS011;54061;52.036;5.558;2022-09-24T08:03:30;29.67;;;15.95;;
67146;SDS011;54061;52.036;5.558;2022-09-24T08:05:56;27.27;;;15.02;;
67146;SDS011;54061;52.036;5.558;2022-09-24T08:08:22;27.25;;;15.00;;
67146;SDS011;54061;52.036;5.558;2022-09-24T08:10:48;32.88;;;16.02;;
67146;SDS011;54061;52.036;5.558;2022-09-24T08:13:14;31.65;;;17.10;;
67146;SDS011;54061;52.036;5.558;2022-09-24T08:15:40;32.58;;;16.13;;
67146;SDS011;54061;52.036;5.558;2022-09-24T08:18:06;25.30;;;16.30;;
67146;SDS011;54061;52.036;5.558;2022-09-24T08:20:32;30.17;;;16.25;;
67146;SDS011;54061;52.036;5.558;2022-09-24T08:23:01;27.10;;;15.20;;
67146;SDS011;54061;52.036;5.558;2022-09-24T08:25:31;28.17;;;16.15;;
67146;SDS011;54061;52.036;5.558;2022-09-24T08:28:04;26.90;;;15.57;;
67146;SDS011;54061;52.036;5.558;2022-09-24T08:30:30;28.40;;;15.70;;
67146;SDS011;54061;52.036;5.558;2022-09-24T08:32:57;29.25;;;15.68;;
67146;SDS011;54061;52.036;5.558;2022-09-24T08:35:23;29.95;;;15.43;;
67146;SDS011;54061;52.036;5.558;2022-09-24T08:37:49;24.88;;;14.88;;
67146;SDS011;54061;52.036;5.558;2022-09-24T08:40:18;30.00;;;16.42;;
67146;SDS011;54061;52.036;5.558;2022-09-24T08:45:39;29.38;;;15.77;;
67146;SDS011;54061;52.036;5.558;2022-09-24T08:48:29;27.52;;;15.57;;
67146;SDS011;54061;52.036;5.558;2022-09-24T08:51:01;27.60;;;15.85;;
67146;SDS011;54061;52.036;5.558;2022-09-24T08:56:09;20.90;;;14.20;;
67146;SDS011;54061;52.036;5.558;2022-09-24T08:58:38;24.70;;;15.30;;
67146;SDS011;54061;52.036;5.558;2022-09-24T09:09:02;21.08;;;13.85;;
67146;SDS011;54061;52.036;5.558;2022-09-24T09:11:35;23.58;;;14.70;;
67146;SDS011;54061;52.036;5.558;2022-09-24T09:14:10;21.05;;;13.43;;
67146;SDS011;54061;52.036;5.558;2022-09-24T09:19:17;24.20;;;14.80;;
67146;SDS011;54061;52.036;5.558;2022-09-24T09:21:49;24.95;;;14.90;;
67146;SDS011;54061;52.036;5.558;2022-09-24T09:26:55;17.30;;;12.13;;
67146;SDS011;54061;52.036;5.558;2022-09-24T09:29:22;19.40;;;13.27;;
67146;SDS011;54061;52.036;5.558;2022-09-24T09:34:31;16.60;;;11.98;;
67146;SDS011;54061;52.036;5.558;2022-09-24T09:37:26;16.88;;;12.18;;
67146;SDS011;54061;52.036;5.558;2022-09-24T09:40:03;18.50;;;12.65;;
67146;SDS011;54061;52.036;5.558;2022-09-24T09:42:42;16.60;;;11.52;;
67146;SDS011;54061;52.036;5.558;2022-09-24T09:45:21;15.00;;;11.73;;
67146;SDS011;54061;52.036;5.558;2022-09-24T09:48:07;15.77;;;10.90;;
67146;SDS011;54061;52.036;5.558;2022-09-24T09:50:42;15.60;;;10.65;;
67146;SDS011;54061;52.036;5.558;2022-09-24T09:53:17;12.32;;;10.18;;
67146;SDS011;54061;52.036;5.558;2022-09-24T09:55:53;14.05;;;10.52;;
67146;SDS011;54061;52.036;5.558;2022-09-24T09:58:22;16.35;;;10.68;;
67146;SDS011;54061;52.036;5.558;2022-09-24T10:00:50;14.85;;;10.40;;
67146;SDS011;54061;52.036;5.558;2022-09-24T10:06:11;9.57;;;7.70;;
67146;SDS011;54061;52.036;5.558;2022-09-24T10:08:38;12.20;;;9.27;;
67146;SDS011;54061;52.036;5.558;2022-09-24T10:11:04;11.90;;;8.20;;
67146;SDS011;54061;52.036;5.558;2022-09-24T10:13:38;12.60;;;9.18;;
67146;SDS011;54061;52.036;5.558;2022-09-24T10:16:04;8.75;;;7.85;;
67146;SDS011;54061;52.036;5.558;2022-09-24T10:18:37;11.10;;;9.20;;
67146;SDS011;54061;52.036;5.558;2022-09-24T10:21:10;10.30;;;8.65;;
67146;SDS011;54061;52.036;5.558;2022-09-24T10:23:39;9.18;;;7.45;;
67146;SDS011;54061;52.036;5.558;2022-09-24T10:26:06;8.82;;;7.35;;
67146;SDS011;54061;52.036;5.558;2022-09-24T10:28:33;7.15;;;6.10;;
67146;SDS011;54061;52.036;5.558;2022-09-24T10:31:25;6.88;;;6.07;;
67146;SDS011;54061;52.036;5.558;2022-09-24T10:33:55;8.88;;;7.25;;
67146;SDS011;54061;52.036;5.558;2022-09-24T10:36:28;10.80;;;7.60;;
67146;SDS011;54061;52.036;5.558;2022-09-24T10:39:01;8.32;;;7.35;;
67146;SDS011;54061;52.036;5.558;2022-09-24T10:41:32;7.72;;;6.60;;
67146;SDS011;54061;52.036;5.558;2022-09-24T10:44:00;7.47;;;5.60;;
67146;SDS011;54061;52.036;5.558;2022-09-24T10:46:58;8.35;;;5.80;;
67146;SDS011;54061;52.036;5.558;2022-09-24T11:00:15;8.55;;;6.18;;
67146;SDS011;54061;52.036;5.558;2022-09-24T11:05:32;4.70;;;4.22;;
67146;SDS011;54061;52.036;5.558;2022-09-24T11:08:03;4.50;;;4.10;;
67146;SDS011;54061;52.036;5.558;2022-09-24T11:13:45;3.88;;;3.47;;
67146;SDS011;54061;52.036;5.558;2022-09-24T11:16:22;4.43;;;4.03;;
67146;SDS011;54061;52.036;5.558;2022-09-24T11:19:15;4.20;;;3.83;;
67146;SDS011;54061;52.036;5.558;2022-09-24T11:22:01;8.38;;;6.00;;
67146;SDS011;54061;52.036;5.558;2022-09-24T11:24:38;37.50;;;25.67;;
67146;SDS011;54061;52.036;5.558;2022-09-24T11:27:35;7.25;;;4.80;;
67146;SDS011;54061;52.036;5.558;2022-09-24T11:30:15;5.32;;;3.65;;
67146;SDS011;54061;52.036;5.558;2022-09-24T11:32:50;13.60;;;10.50;;
67146;SDS011;54061;52.036;5.558;2022-09-24T11:35:30;5.70;;;5.10;;
67146;SDS011;54061;52.036;5.558;2022-09-24T11:38:14;5.05;;;4.55;;
67146;SDS011;54061;52.036;5.558;2022-09-24T11:56:57;6.85;;;6.03;;
67146;SDS011;54061;52.036;5.558;2022-09-24T12:02:45;6.65;;;5.95;;
67146;SDS011;54061;52.036;5.558;2022-09-24T12:05:34;5.82;;;4.70;;
67146;SDS011;54061;52.036;5.558;2022-09-24T12:08:14;7.85;;;4.20;;
67146;SDS011;54061;52.036;5.558;2022-09-24T12:13:33;3.97;;;3.53;;
67146;SDS011;54061;52.036;5.558;2022-09-24T12:16:06;3.88;;;3.47;;
67146;SDS011;54061;52.036;5.558;2022-09-24T12:18:51;4.05;;;3.40;;
67146;SDS011;54061;52.036;5.558;2022-09-24T12:21:35;5.18;;;3.28;;
67146;SDS011;54061;52.036;5.558;2022-09-24T12:24:06;8.38;;;3.50;;
67146;SDS011;54061;52.036;5.558;2022-09-24T12:26:52;4.00;;;3.38;;
67146;SDS011;54061;52.036;5.558;2022-09-24T12:40:36;6.63;;;2.58;;
67146;SDS011;54061;52.036;5.558;2022-09-24T12:43:12;2.08;;;1.88;;
67146;SDS011;54061;52.036;5.558;2022-09-24T12:45:55;2.13;;;1.85;;
67146;SDS011;54061;52.036;5.558;2022-09-24T12:48:26;2.45;;;1.48;;
67146;SDS011;54061;52.036;5.558;2022-09-24T12:50:58;2.20;;;2.00;;
67146;SDS011;54061;52.036;5.558;2022-09-24T12:53:32;1.98;;;1.80;;
67146;SDS011;54061;52.036;5.558;2022-09-24T12:56:01;1.85;;;1.75;;
67146;SDS011;54061;52.036;5.558;2022-09-24T12:58:36;3.45;;;1.80;;
67146;SDS011;54061;52.036;5.558;2022-09-24T13:03:59;2.00;;;1.85;;
67146;SDS011;54061;52.036;5.558;2022-09-24T13:06:30;4.03;;;2.28;;
67146;SDS011;54061;52.036;5.558;2022-09-24T13:08:58;4.45;;;2.30;;
67146;SDS011;54061;52.036;5.558;2022-09-24T13:14:19;3.67;;;1.98;;
67146;SDS011;54061;52.036;5.558;2022-09-24T13:16:46;2.65;;;1.98;;
67146;SDS011;54061;52.036;5.558;2022-09-24T13:19:21;2.17;;;2.00;;
67146;SDS011;54061;52.036;5.558;2022-09-24T13:21:56;2.67;;;2.47;;
67146;SDS011;54061;52.036;5.558;2022-09-24T13:24:27;3.10;;;2.25;;
67146;SDS011;54061;52.036;5.558;2022-09-24T13:27:07;4.88;;;3.10;;
67146;SDS011;54061;52.036;5.558;2022-09-24T13:29:45;6.57;;;3.20;;
67146;SDS011;54061;52.036;5.558;2022-09-24T13:32:14;6.38;;;4.18;;
67146;SDS011;54061;52.036;5.558;2022-09-24T13:34:45;4.22;;;3.58;;
67146;SDS011;54061;52.036;5.558;2022-09-24T13:37:32;3.63;;;3.00;;
67146;SDS011;54061;52.036;5.558;2022-09-24T13:40:05;3.20;;;2.90;;
67146;SDS011;54061;52.036;5.558;2022-09-24T13:42:57;1.80;;;1.70;;
67146;SDS011;54061;52.036;5.558;2022-09-24T13:45:28;2.42;;;2.10;;
67146;SDS011;54061;52.036;5.558;2022-09-24T13:47:56;2.80;;;2.25;;
67146;SDS011;54061;52.036;5.558;2022-09-24T13:50:34;2.53;;;2.33;;
67146;SDS011;54061;52.036;5.558;2022-09-24T13:53:24;3.10;;;2.53;;
67146;SDS011;54061;52.036;5.558;2022-09-24T13:55:58;4.18;;;2.97;;
67146;SDS011;54061;52.036;5.558;2022-09-24T14:00:54;3.00;;;2.50;;
67146;SDS011;54061;52.036;5.558;2022-09-24T14:03:27;4.15;;;2.50;;
67146;SDS011;54061;52.036;5.558;2022-09-24T14:05:57;3.80;;;2.58;;
67146;SDS011;54061;52.036;5.558;2022-09-24T14:08:23;4.55;;;2.60;;
67146;SDS011;54061;52.036;5.558;2022-09-24T14:10:51;3.03;;;2.72;;
67146;SDS011;54061;52.036;5.558;2022-09-24T14:13:28;3.38;;;3.03;;
67146;SDS011;54061;52.036;5.558;2022-09-24T14:18:19;5.03;;;2.72;;
67146;SDS011;54061;52.036;5.558;2022-09-24T14:21:03;4.47;;;3.30;;
67146;SDS011;54061;52.036;5.558;2022-09-24T14:23:41;6.68;;;3.03;;
67146;SDS011;54061;52.036;5.558;2022-09-24T14:26:56;4.78;;;3.50;;
67146;SDS011;54061;52.036;5.558;2022-09-24T14:29:07;6.03;;;3.30;;
67146;SDS011;54061;52.036;5.558;2022-09-24T14:31:43;10.13;;;3.60;;
67146;SDS011;54061;52.036;5.558;2022-09-24T14:34:26;11.95;;;3.85;;
67146;SDS011;54061;52.036;5.558;2022-09-24T14:37:05;8.20;;;3.08;;
67146;SDS011;54061;52.036;5.558;2022-09-24T14:39:36;8.38;;;2.35;;
67146;SDS011;54061;52.036;5.558;2022-09-24T14:42:28;5.90;;;2.53;;
67146;SDS011;54061;52.036;5.558;2022-09-24T14:44:58;6.90;;;2.40;;
67146;SDS011;54061;52.036;5.558;2022-09-24T14:47:26;4.07;;;2.10;;
67146;SDS011;54061;52.036;5.558;2022-09-24T14:49:54;8.48;;;3.30;;
67146;SDS011;54061;52.036;5.558;2022-09-24T14:52:33;8.07;;;2.45;;
67146;SDS011;54061;52.036;5.558;2022-09-24T14:55:03;11.30;;;2.80;;
67146;SDS011;54061;52.036;5.558;2022-09-24T14:57:45;10.70;;;2.97;;
67146;SDS011;54061;52.036;5.558;2022-09-24T15:00:19;10.55;;;3.35;;
67146;SDS011;54061;52.036;5.558;2022-09-24T15:03:00;12.90;;;3.05;;
67146;SDS011;54061;52.036;5.558;2022-09-24T15:05:29;10.98;;;3.92;;
67146;SDS011;54061;52.036;5.558;2022-09-24T15:10:53;8.30;;;3.03;;
67146;SDS011;54061;52.036;5.558;2022-09-24T15:13:28;5.95;;;2.28;;
67146;SDS011;54061;52.036;5.558;2022-09-24T15:16:06;6.65;;;2.40;;
67146;SDS011;54061;52.036;5.558;2022-09-24T15:18:43;5.68;;;1.98;;
67146;SDS011;54061;52.036;5.558;2022-09-24T15:21:11;9.23;;;1.80;;
67146;SDS011;54061;52.036;5.558;2022-09-24T15:23:37;7.22;;;2.60;;
67146;SDS011;54061;52.036;5.558;2022-09-24T15:26:02;7.55;;;2.00;;
67146;SDS011;54061;52.036;5.558;2022-09-24T15:28:28;7.25;;;1.67;;
67146;SDS011;54061;52.036;5.558;2022-09-24T15:30:55;5.60;;;2.22;;
67146;SDS011;54061;52.036;5.558;2022-09-24T15:33:21;11.80;;;2.10;;
67146;SDS011;54061;52.036;5.558;2022-09-24T15:35:47;6.47;;;2.10;;
67146;SDS011;54061;52.036;5.558;2022-09-24T15:38:16;8.70;;;2.20;;
67146;SDS011;54061;52.036;5.558;2022-09-24T15:40:43;10.48;;;2.22;;
67146;SDS011;54061;52.036;5.558;2022-09-24T15:43:16;7.30;;;2.22;;
67146;SDS011;54061;52.036;5.558;2022-09-24T15:45:46;19.02;;;2.85;;
67146;SDS011;54061;52.036;5.558;2022-09-24T15:48:12;7.93;;;2.90;;
67146;SDS011;54061;52.036;5.558;2022-09-24T15:50:38;14.77;;;2.72;;
67146;SDS011;54061;52.036;5.558;2022-09-24T15:53:05;11.60;;;2.33;;
67146;SDS011;54061;52.036;5.558;2022-09-24T15:55:32;5.82;;;2.35;;
67146;SDS011;54061;52.036;5.558;2022-09-24T15:58:00;10.18;;;2.70;;
67146;SDS011;54061;52.036;5.558;2022-09-24T16:00:26;10.63;;;2.72;;
67146;SDS011;54061;52.036;5.558;2022-09-24T16:02:53;6.90;;;2.08;;
67146;SDS011;54061;52.036;5.558;2022-09-24T16:05:20;5.57;;;2.00;;
67146;SDS011;54061;52.036;5.558;2022-09-24T16:07:46;10.98;;;2.30;;
67146;SDS011;54061;52.036;5.558;2022-09-24T16:10:13;5.93;;;2.00;;
67146;SDS011;54061;52.036;5.558;2022-09-24T16:12:39;6.25;;;2.00;;
67146;SDS011;54061;52.036;5.558;2022-09-24T16:15:06;8.98;;;1.98;;
67146;SDS011;54061;52.036;5.558;2022-09-24T16:17:35;10.57;;;2.38;;
67146;SDS011;54061;52.036;5.558;2022-09-24T16:20:02;12.85;;;1.98;;
67146;SDS011;54061;52.036;5.558;2022-09-24T16:22:28;7.43;;;1.90;;
67146;SDS011;54061;52.036;5.558;2022-09-24T16:24:54;8.63;;;1.80;;
67146;SDS011;54061;52.036;5.558;2022-09-24T16:27:20;20.23;;;2.35;;
67146;SDS011;54061;52.036;5.558;2022-09-24T16:29:45;7.70;;;1.80;;
67146;SDS011;54061;52.036;5.558;2022-09-24T16:32:11;8.82;;;2.10;;
67146;SDS011;54061;52.036;5.558;2022-09-24T16:34:38;10.98;;;2.40;;